sensor_id;sensor_type;location;lat;lon;timestamp;pressure;altitude;pressure_sealevel;temperature;humidity
10852;BME280;5479;52.046;6.314;2023-02-20T00:01:04;102470.88;;;5.19;100.00
10852;BME280;5479;52.046;6.314;2023-02-20T00:03:34;102470.81;;;5.23;100.00
10852;BME280;5479;52.046;6.314;2023-02-20T00:06:02;102467.22;;;5.32;100.00
10852;BME280;5479;52.046;6.314;2023-02-20T00:08:29;102470.75;;;5.28;100.00
10852;BME280;5479;52.046;6.314;2023-02-20T00:10:57;102469.88;;;5.29;100.00
10852;BME280;5479;52.046;6.314;2023-02-20T00:13:25;102467.22;;;5.32;100.00
10852;BME280;5479;52.046;6.314;2023-02-20T00:15:53;102458.47;;;5.30;100.00
10852;BME280;5479;52.046;6.314;2023-02-20T00:18:21;102469.91;;;5.26;100.00
10852;BME280;5479;52.046;6.314;2023-02-20T00:20:50;102465.56;;;5.22;100.00
10852;BME280;5479;52.046;6.314;2023-02-20T00:23:18;102451.56;;;5.23;100.00
10852;BME280;5479;52.046;6.314;2023-02-20T00:25:46;102442.84;;;5.21;100.00
10852;BME280;5479;52.046;6.314;2023-02-20T00:28:14;102440.16;;;5.27;100.00
10852;BME280;5479;52.046;6.314;2023-02-20T00:30:42;102443.63;;;5.29;100.00
10852;BME280;5479;52.046;6.314;2023-02-20T00:33:10;102432.09;;;5.39;100.00
10852;BME280;5479;52.046;6.314;2023-02-20T00:35:38;102423.22;;;5.49;100.00
10852;BME280;5479;52.046;6.314;2023-02-20T00:38:07;102417.09;;;5.48;100.00
10852;BME280;5479;52.046;6.314;2023-02-20T00:40:35;102411.78;;;5.53;100.00
10852;BME280;5479;52.046;6.314;2023-02-20T00:43:03;102408.25;;;5.54;100.00
10852;BME280;5479;52.046;6.314;2023-02-20T00:45:30;102412.59;;;5.58;100.00
10852;BME280;5479;52.046;6.314;2023-02-20T00:47:58;102414.25;;;5.65;100.00
10852;BME280;5479;52.046;6.314;2023-02-20T00:50:26;102401.16;;;5.61;100.00
10852;BME280;5479;52.046;6.314;2023-02-20T00:52:54;102400.28;;;5.60;100.00
10852;BME280;5479;52.046;6.314;2023-02-20T00:55:23;102402.00;;;5.64;100.00
10852;BME280;5479;52.046;6.314;2023-02-20T00:57:52;102397.56;;;5.68;100.00
10852;BME280;5479;52.046;6.314;2023-02-20T01:00:23;102391.44;;;5.67;100.00
10852;BME280;5479;52.046;6.314;2023-02-20T01:02:52;102381.72;;;5.74;100.00
10852;BME280;5479;52.046;6.314;2023-02-20T01:05:20;102382.63;;;5.71;100.00
10852;BME280;5479;52.046;6.314;2023-02-20T01:07:49;102386.91;;;5.78;100.00
10852;BME280;5479;52.046;6.314;2023-02-20T01:10:17;102386.84;;;5.81;100.00
10852;BME280;5479;52.046;6.314;2023-02-20T01:12:46;102382.47;;;5.85;100.00
10852;BME280;5479;52.046;6.314;2023-02-20T01:15:14;102371.78;;;5.94;100.00
10852;BME280;5479;52.046;6.314;2023-02-20T01:17:42;102370.00;;;5.97;100.00
10852;BME280;5479;52.046;6.314;2023-02-20T01:20:11;102367.56;;;5.85;100.00
10852;BME280;5479;52.046;6.314;2023-02-20T01:22:38;102366.69;;;5.85;100.00
10852;BME280;5479;52.046;6.314;2023-02-20T01:25:07;102363.19;;;5.81;100.00
10852;BME280;5479;52.046;6.314;2023-02-20T01:27:35;102357.94;;;5.81;100.00
10852;BME280;5479;52.046;6.314;2023-02-20T01:30:05;102355.34;;;5.78;100.00
10852;BME280;5479;52.046;6.314;2023-02-20T01:32:33;102348.28;;;5.82;100.00
10852;BME280;5479;52.046;6.314;2023-02-20T01:35:01;102340.50;;;5.77;100.00
10852;BME280;5479;52.046;6.314;2023-02-20T01:37:29;102334.44;;;5.72;100.00
10852;BME280;5479;52.046;6.314;2023-02-20T01:39:57;102323.06;;;5.70;100.00
10852;BME280;5479;52.046;6.314;2023-02-20T01:42:29;102324.00;;;5.65;100.00
10852;BME280;5479;52.046;6.314;2023-02-20T01:45:17;102323.97;;;5.68;100.00
10852;BME280;5479;52.046;6.314;2023-02-20T01:47:46;102309.94;;;5.67;100.00
10852;BME280;5479;52.046;6.314;2023-02-20T01:50:15;102303.06;;;5.62;100.00
10852;BME280;5479;52.046;6.314;2023-02-20T01:52:47;102291.72;;;5.57;100.00
10852;BME280;5479;52.046;6.314;2023-02-20T01:55:20;102298.91;;;5.44;100.00
10852;BME280;5479;52.046;6.314;2023-02-20T01:57:52;102291.94;;;5.43;100.00
10852;BME280;5479;52.046;6.314;2023-02-20T02:00:23;102288.50;;;5.38;100.00
10852;BME280;5479;52.046;6.314;2023-02-20T02:02:59;102286.78;;;5.37;100.00
10852;BME280;5479;52.046;6.314;2023-02-20T02:05:29;102283.31;;;5.35;100.00
10852;BME280;5479;52.046;6.314;2023-02-20T02:07:58;102290.28;;;5.36;100.00
10852;BME280;5479;52.046;6.314;2023-02-20T02:10:32;102290.28;;;5.36;100.00
10852;BME280;5479;52.046;6.314;2023-02-20T02:13:03;102281.53;;;5.37;100.00
10852;BME280;5479;52.046;6.314;2023-02-20T02:15:32;102271.97;;;5.31;100.00
10852;BME280;5479;52.046;6.314;2023-02-20T02:18:15;102264.97;;;5.30;100.00
10852;BME280;5479;52.046;6.314;2023-02-20T02:36:14;102254.47;;;5.30;100.00
10852;BME280;5479;52.046;6.314;2023-02-20T02:38:50;102252.66;;;5.32;100.00
10852;BME280;5479;52.046;6.314;2023-02-20T02:41:26;102249.25;;;5.29;100.00
10852;BME280;5479;52.046;6.314;2023-02-20T02:44:01;102243.91;;;5.33;100.00
10852;BME280;5479;52.046;6.314;2023-02-20T02:46:36;102250.88;;;5.37;100.00
10852;BME280;5479;52.046;6.314;2023-02-20T02:49:18;102246.53;;;5.33;100.00
10852;BME280;5479;52.046;6.314;2023-02-20T02:51:49;102243.81;;;5.38;100.00
10852;BME280;5479;52.046;6.314;2023-02-20T02:54:23;102224.56;;;5.39;100.00
10852;BME280;5479;52.046;6.314;2023-02-20T02:57:15;102221.09;;;5.35;100.00
10852;BME280;5479;52.046;6.314;2023-02-20T02:59:46;102226.34;;;5.37;100.00
10852;BME280;5479;52.046;6.314;2023-02-20T03:02:18;102233.28;;;5.41;100.00
10852;BME280;5479;52.046;6.314;2023-02-20T03:04:48;102224.56;;;5.39;100.00
10852;BME280;5479;52.046;6.314;2023-02-20T03:07:19;102227.28;;;5.34;100.00
10852;BME280;5479;52.046;6.314;2023-02-20T03:09:50;102222.94;;;5.32;100.00
10852;BME280;5479;52.046;6.314;2023-02-20T03:12:20;102229.84;;;5.37;100.00
10852;BME280;5479;52.046;6.314;2023-02-20T03:14:55;102227.19;;;5.39;100.00
10852;BME280;5479;52.046;6.314;2023-02-20T03:17:46;102225.34;;;5.44;100.00
10852;BME280;5479;52.046;6.314;2023-02-20T03:20:17;102226.06;;;5.55;100.00
10852;BME280;5479;52.046;6.314;2023-02-20T03:22:49;102225.94;;;5.64;100.00
10852;BME280;5479;52.046;6.314;2023-02-20T03:25:22;102213.53;;;5.72;100.00
10852;BME280;5479;52.046;6.314;2023-02-20T03:27:53;102207.16;;;5.84;100.00
10852;BME280;5479;52.046;6.314;2023-02-20T03:30:27;102220.16;;;5.94;100.00
10852;BME280;5479;52.046;6.314;2023-02-20T03:33:00;102207.88;;;5.96;100.00
10852;BME280;5479;52.046;6.314;2023-02-20T03:35:47;102204.25;;;6.02;100.00
10852;BME280;5479;52.046;6.314;2023-02-20T03:38:37;102210.25;;;6.08;100.00
10852;BME280;5479;52.046;6.314;2023-02-20T03:41:26;102200.44;;;6.18;100.00
10852;BME280;5479;52.046;6.314;2023-02-20T03:44:14;102208.09;;;6.29;100.00
10852;BME280;5479;52.046;6.314;2023-02-20T03:46:47;102203.63;;;6.35;100.00
10852;BME280;5479;52.046;6.314;2023-02-20T03:49:19;102204.47;;;6.36;100.00
10852;BME280;5479;52.046;6.314;2023-02-20T03:51:48;102195.56;;;6.43;100.00
10852;BME280;5479;52.046;6.314;2023-02-20T03:54:15;102188.50;;;6.45;100.00
10852;BME280;5479;52.046;6.314;2023-02-20T03:56:45;102196.31;;;6.49;100.00
10852;BME280;5479;52.046;6.314;2023-02-20T03:59:21;102203.25;;;6.53;100.00
10852;BME280;5479;52.046;6.314;2023-02-20T04:01:53;102202.47;;;6.50;100.00
10852;BME280;5479;52.046;6.314;2023-02-20T04:04:27;102210.25;;;6.53;100.00
10852;BME280;5479;52.046;6.314;2023-02-20T04:06:57;102205.00;;;6.53;100.00
10852;BME280;5479;52.046;6.314;2023-02-20T04:09:29;102206.75;;;6.54;100.00
10852;BME280;5479;52.046;6.314;2023-02-20T04:30:25;102187.38;;;6.58;100.00
10852;BME280;5479;52.046;6.314;2023-02-20T04:32:53;102173.28;;;6.60;100.00
10852;BME280;5479;52.046;6.314;2023-02-20T04:35:22;102171.50;;;6.61;100.00
10852;BME280;5479;52.046;6.314;2023-02-20T04:37:50;102173.28;;;6.60;100.00
10852;BME280;5479;52.046;6.314;2023-02-20T04:40:19;102175.00;;;6.61;100.00
10852;BME280;5479;52.046;6.314;2023-02-20T04:42:48;102162.59;;;6.66;100.00
10852;BME280;5479;52.046;6.314;2023-02-20T04:45:16;102166.00;;;6.72;100.00
10852;BME280;5479;52.046;6.314;2023-02-20T04:47:45;102171.19;;;6.75;100.00
10852;BME280;5479;52.046;6.314;2023-02-20T04:50:24;102176.50;;;6.73;100.00
10852;BME280;5479;52.046;6.314;2023-02-20T04:52:52;102172.19;;;6.71;100.00
10852;BME280;5479;52.046;6.314;2023-02-20T04:55:21;102154.69;;;6.68;100.00
10852;BME280;5479;52.046;6.314;2023-02-20T04:57:50;102166.81;;;6.75;100.00
10852;BME280;5479;52.046;6.314;2023-02-20T05:00:19;102164.91;;;6.82;100.00
10852;BME280;5479;52.046;6.314;2023-02-20T05:02:50;102157.84;;;6.82;100.00
10852;BME280;5479;52.046;6.314;2023-02-20T05:05:21;102165.75;;;6.84;100.00
10852;BME280;5479;52.046;6.314;2023-02-20T05:07:55;102167.56;;;6.82;100.00
10852;BME280;5479;52.046;6.314;2023-02-20T05:10:24;102169.31;;;6.81;100.00
10852;BME280;5479;52.046;6.314;2023-02-20T05:12:53;102154.28;;;6.86;100.00
10852;BME280;5479;52.046;6.314;2023-02-20T05:15:22;102157.72;;;6.88;100.00
10852;BME280;5479;52.046;6.314;2023-02-20T05:17:51;102162.03;;;6.92;100.00
10852;BME280;5479;52.046;6.314;2023-02-20T05:20:20;102158.47;;;6.95;100.00
10852;BME280;5479;52.046;6.314;2023-02-20T05:23:08;102166.31;;;6.96;100.00
10852;BME280;5479;52.046;6.314;2023-02-20T05:25:35;102161.03;;;6.98;100.00
10852;BME280;5479;52.046;6.314;2023-02-20T05:28:03;102153.97;;;6.98;100.00
10852;BME280;5479;52.046;6.314;2023-02-20T05:30:31;102156.53;;;7.01;100.00
10852;BME280;5479;52.046;6.314;2023-02-20T05:33:00;102159.03;;;7.07;100.00
10852;BME280;5479;52.046;6.314;2023-02-20T05:35:28;102166.88;;;7.10;100.00
10852;BME280;5479;52.046;6.314;2023-02-20T05:37:56;102162.50;;;7.09;100.00
10852;BME280;5479;52.046;6.314;2023-02-20T05:40:24;102158.97;;;7.10;100.00
10852;BME280;5479;52.046;6.314;2023-02-20T05:42:52;102166.00;;;7.11;100.00
10852;BME280;5479;52.046;6.314;2023-02-20T05:45:20;102164.19;;;7.13;100.00
10852;BME280;5479;52.046;6.314;2023-02-20T05:47:48;102156.97;;;7.21;100.00
10852;BME280;5479;52.046;6.314;2023-02-20T05:50:17;102150.88;;;7.19;100.00
10852;BME280;5479;52.046;6.314;2023-02-20T05:52:45;102149.06;;;7.21;100.00
10852;BME280;5479;52.046;6.314;2023-02-20T05:55:13;102147.38;;;7.19;100.00
10852;BME280;5479;52.046;6.314;2023-02-20T05:57:42;102141.91;;;7.25;100.00
10852;BME280;5479;52.046;6.314;2023-02-20T06:00:10;102139.28;;;7.26;100.00
10852;BME280;5479;52.046;6.314;2023-02-20T06:02:39;102140.16;;;7.27;100.00
10852;BME280;5479;52.046;6.314;2023-02-20T06:05:07;102131.28;;;7.29;100.00
10852;BME280;5479;52.046;6.314;2023-02-20T06:07:36;102133.84;;;7.33;100.00
10852;BME280;5479;52.046;6.314;2023-02-20T06:10:05;102138.25;;;7.32;100.00
10852;BME280;5479;52.046;6.314;2023-02-20T06:12:32;102132.13;;;7.32;100.00
10852;BME280;5479;52.046;6.314;2023-02-20T06:15:00;102139.06;;;7.36;100.00
10852;BME280;5479;52.046;6.314;2023-02-20T06:17:30;102133.00;;;7.30;100.00
10852;BME280;5479;52.046;6.314;2023-02-20T06:19:58;102139.06;;;7.36;100.00
10852;BME280;5479;52.046;6.314;2023-02-20T06:22:27;102133.69;;;7.39;100.00
10852;BME280;5479;52.046;6.314;2023-02-20T06:24:57;102125.75;;;7.40;100.00
10852;BME280;5479;52.046;6.314;2023-02-20T06:27:25;102137.25;;;7.38;100.00
10852;BME280;5479;52.046;6.314;2023-02-20T06:29:53;102137.16;;;7.41;100.00
10852;BME280;5479;52.046;6.314;2023-02-20T06:32:21;102139.88;;;7.38;100.00
10852;BME280;5479;52.046;6.314;2023-02-20T06:34:49;102144.16;;;7.42;100.00
10852;BME280;5479;52.046;6.314;2023-02-20T06:37:17;102144.16;;;7.42;100.00
10852;BME280;5479;52.046;6.314;2023-02-20T06:39:45;102140.63;;;7.43;100.00
10852;BME280;5479;52.046;6.314;2023-02-20T06:42:16;102137.84;;;7.49;100.00
10852;BME280;5479;52.046;6.314;2023-02-20T06:44:44;102137.78;;;7.50;100.00
10852;BME280;5479;52.046;6.314;2023-02-20T06:47:12;102142.94;;;7.55;100.00
10852;BME280;5479;52.046;6.314;2023-02-20T06:49:40;102127.97;;;7.57;100.00
10852;BME280;5479;52.046;6.314;2023-02-20T06:52:09;102130.59;;;7.57;100.00
10852;BME280;5479;52.046;6.314;2023-02-20T06:54:37;102132.28;;;7.59;100.00
10852;BME280;5479;52.046;6.314;2023-02-20T06:57:05;102134.94;;;7.58;100.00
10852;BME280;5479;52.046;6.314;2023-02-20T06:59:35;102121.69;;;7.62;100.00
10852;BME280;5479;52.046;6.314;2023-02-20T07:02:09;102122.44;;;7.66;100.00
10852;BME280;5479;52.046;6.314;2023-02-20T07:04:37;102122.28;;;7.72;100.00
10852;BME280;5479;52.046;6.314;2023-02-20T07:07:05;102125.06;;;7.67;100.00
10852;BME280;5479;52.046;6.314;2023-02-20T07:09:33;102117.00;;;7.72;100.00
10852;BME280;5479;52.046;6.314;2023-02-20T07:12:01;102108.44;;;7.64;100.00
10852;BME280;5479;52.046;6.314;2023-02-20T07:14:29;102107.44;;;7.68;100.00
10852;BME280;5479;52.046;6.314;2023-02-20T07:16:58;102120.53;;;7.71;100.00
10852;BME280;5479;52.046;6.314;2023-02-20T07:19:26;102119.44;;;7.79;100.00
10852;BME280;5479;52.046;6.314;2023-02-20T07:21:54;102122.22;;;7.75;100.00
10852;BME280;5479;52.046;6.314;2023-02-20T07:24:22;102118.41;;;7.85;100.00
10852;BME280;5479;52.046;6.314;2023-02-20T07:26:50;102108.94;;;7.78;100.00
10852;BME280;5479;52.046;6.314;2023-02-20T07:29:18;102107.94;;;7.82;100.00
10852;BME280;5479;52.046;6.314;2023-02-20T07:31:47;102122.78;;;7.86;100.00
10852;BME280;5479;52.046;6.314;2023-02-20T07:34:16;102118.34;;;7.88;100.00
10852;BME280;5479;52.046;6.314;2023-02-20T07:36:44;102124.34;;;7.93;100.00
10852;BME280;5479;52.046;6.314;2023-02-20T07:39:12;102121.88;;;7.87;100.00
10852;BME280;5479;52.046;6.314;2023-02-20T07:41:40;102126.28;;;7.86;100.00
10852;BME280;5479;52.046;6.314;2023-02-20T07:44:09;102121.72;;;7.93;100.00
10852;BME280;5479;52.046;6.314;2023-02-20T07:46:38;102128.81;;;7.91;100.00
10852;BME280;5479;52.046;6.314;2023-02-20T07:49:07;102118.94;;;7.98;100.00
10852;BME280;5479;52.046;6.314;2023-02-20T07:51:37;102119.78;;;8.00;100.00
10852;BME280;5479;52.046;6.314;2023-02-20T07:54:05;102121.53;;;7.99;100.00
10852;BME280;5479;52.046;6.314;2023-02-20T07:56:33;102119.63;;;8.04;100.00
10852;BME280;5479;52.046;6.314;2023-02-20T07:59:00;102122.28;;;8.04;100.00
10852;BME280;5479;52.046;6.314;2023-02-20T08:01:29;102122.94;;;8.12;100.00
10852;BME280;5479;52.046;6.314;2023-02-20T08:03:57;102126.47;;;8.11;100.00
10852;BME280;5479;52.046;6.314;2023-02-20T08:06:25;102124.63;;;8.13;100.00
10852;BME280;5479;52.046;6.314;2023-02-20T08:08:55;102122.75;;;8.18;100.00
10852;BME280;5479;52.046;6.314;2023-02-20T08:11:23;102120.00;;;8.21;100.00
10852;BME280;5479;52.046;6.314;2023-02-20T08:13:51;102108.81;;;8.13;100.00
10852;BME280;5479;52.046;6.314;2023-02-20T08:16:21;102125.25;;;8.23;100.00
10852;BME280;5479;52.046;6.314;2023-02-20T08:18:49;102126.06;;;8.26;100.00
10852;BME280;5479;52.046;6.314;2023-02-20T08:21:17;102133.31;;;8.18;100.00
10852;BME280;5479;52.046;6.314;2023-02-20T08:23:45;102121.81;;;8.21;100.00
10852;BME280;5479;52.046;6.314;2023-02-20T08:26:14;102125.97;;;8.29;100.00
10852;BME280;5479;52.046;6.314;2023-02-20T08:28:42;102125.13;;;8.29;100.00
10852;BME280;5479;52.046;6.314;2023-02-20T08:31:10;102125.88;;;8.32;100.00
10852;BME280;5479;52.046;6.314;2023-02-20T08:33:38;102124.03;;;8.36;100.00
10852;BME280;5479;52.046;6.314;2023-02-20T08:36:06;102107.28;;;8.37;100.00
10852;BME280;5479;52.046;6.314;2023-02-20T08:38:36;102123.25;;;8.32;100.00
10852;BME280;5479;52.046;6.314;2023-02-20T08:41:05;102116.69;;;8.45;100.00
10852;BME280;5479;52.046;6.314;2023-02-20T08:43:35;102115.16;;;8.38;100.00
10852;BME280;5479;52.046;6.314;2023-02-20T08:46:04;102113.25;;;8.43;100.00
10852;BME280;5479;52.046;6.314;2023-02-20T08:48:32;102103.47;;;8.47;100.00
10852;BME280;5479;52.046;6.314;2023-02-20T08:51:00;102099.69;;;8.56;100.00
10852;BME280;5479;52.046;6.314;2023-02-20T08:53:28;102098.50;;;8.66;100.00
10852;BME280;5479;52.046;6.314;2023-02-20T08:55:56;102109.50;;;8.80;100.00
10852;BME280;5479;52.046;6.314;2023-02-20T08:58:24;102089.97;;;8.85;100.00
10852;BME280;5479;52.046;6.314;2023-02-20T09:00:54;102094.47;;;8.82;100.00
10852;BME280;5479;52.046;6.314;2023-02-20T09:03:22;102085.78;;;9.04;100.00
10852;BME280;5479;52.046;6.314;2023-02-20T09:05:51;102089.22;;;9.08;100.00
10852;BME280;5479;52.046;6.314;2023-02-20T09:08:19;102087.19;;;9.16;100.00
10852;BME280;5479;52.046;6.314;2023-02-20T09:10:47;102093.94;;;9.25;100.00
10852;BME280;5479;52.046;6.314;2023-02-20T09:13:15;102091.91;;;9.33;100.00
10852;BME280;5479;52.046;6.314;2023-02-20T09:15:43;102082.50;;;9.24;100.00
10852;BME280;5479;52.046;6.314;2023-02-20T09:18:13;102076.25;;;9.27;100.00
10852;BME280;5479;52.046;6.314;2023-02-20T09:20:41;102076.38;;;9.48;100.00
10852;BME280;5479;52.046;6.314;2023-02-20T09:23:09;102074.97;;;9.38;100.00
10852;BME280;5479;52.046;6.314;2023-02-20T09:25:37;102080.16;;;9.41;100.00
10852;BME280;5479;52.046;6.314;2023-02-20T09:28:05;102085.31;;;9.20;100.00
10852;BME280;5479;52.046;6.314;2023-02-20T09:30:34;102087.78;;;9.24;100.00
10852;BME280;5479;52.046;6.314;2023-02-20T09:33:02;102095.66;;;9.26;100.00
10852;BME280;5479;52.046;6.314;2023-02-20T09:35:31;102086.00;;;9.25;100.00
10852;BME280;5479;52.046;6.314;2023-02-20T09:37:59;102073.75;;;9.22;100.00
10852;BME280;5479;52.046;6.314;2023-02-20T09:40:29;102086.28;;;9.17;100.00
10852;BME280;5479;52.046;6.314;2023-02-20T09:43:11;102101.25;;;9.17;100.00
10852;BME280;5479;52.046;6.314;2023-02-20T09:45:42;102094.50;;;9.08;100.00
10852;BME280;5479;52.046;6.314;2023-02-20T09:48:22;102099.16;;;9.00;100.00
10852;BME280;5479;52.046;6.314;2023-02-20T09:50:58;102095.97;;;8.90;100.00
10852;BME280;5479;52.046;6.314;2023-02-20T09:53:32;102102.59;;;9.02;100.00
10852;BME280;5479;52.046;6.314;2023-02-20T09:56:03;102106.38;;;8.95;100.00
10852;BME280;5479;52.046;6.314;2023-02-20T09:58:41;102118.56;;;8.99;100.00
10852;BME280;5479;52.046;6.314;2023-02-20T10:01:13;102106.38;;;8.95;100.00
10852;BME280;5479;52.046;6.314;2023-02-20T10:03:51;102105.22;;;9.03;100.00
10852;BME280;5479;52.046;6.314;2023-02-20T10:06:24;102105.41;;;8.97;100.00
10852;BME280;5479;52.046;6.314;2023-02-20T10:08:52;102106.38;;;8.95;100.00
10852;BME280;5479;52.046;6.314;2023-02-20T10:17:16;102122.16;;;8.96;100.00
10852;BME280;5479;52.046;6.314;2023-02-20T10:19:50;102124.09;;;8.91;100.00
10852;BME280;5479;52.046;6.314;2023-02-20T10:22:24;102113.50;;;8.93;100.00
10852;BME280;5479;52.046;6.314;2023-02-20T10:25:03;102123.28;;;8.89;100.00
10852;BME280;5479;52.046;6.314;2023-02-20T10:27:41;102125.59;;;9.00;100.00
10852;BME280;5479;52.046;6.314;2023-02-20T10:30:17;102122.75;;;9.06;100.00
10852;BME280;5479;52.046;6.314;2023-02-20T10:32:48;102133.94;;;8.86;100.00
10852;BME280;5479;52.046;6.314;2023-02-20T10:35:21;102132.69;;;8.98;100.00
10852;BME280;5479;52.046;6.314;2023-02-20T10:37:56;102147.50;;;9.03;100.00
10852;BME280;5479;52.046;6.314;2023-02-20T10:40:29;102140.47;;;9.02;100.00
10852;BME280;5479;52.046;6.314;2023-02-20T10:43:02;102144.88;;;9.02;100.00
10852;BME280;5479;52.046;6.314;2023-02-20T10:45:38;102147.75;;;8.96;100.00
10852;BME280;5479;52.046;6.314;2023-02-20T10:48:10;102146.91;;;8.94;100.00
10852;BME280;5479;52.046;6.314;2023-02-20T10:50:44;102136.25;;;8.97;100.00
10852;BME280;5479;52.046;6.314;2023-02-20T10:53:24;102153.03;;;8.96;100.00
10852;BME280;5479;52.046;6.314;2023-02-20T10:56:04;102143.28;;;8.98;100.00
10852;BME280;5479;52.046;6.314;2023-02-20T10:58:39;102139.69;;;8.99;100.00
10852;BME280;5479;52.046;6.314;2023-02-20T11:01:10;102123.66;;;9.05;100.00
10852;BME280;5479;52.046;6.314;2023-02-20T11:03:46;102129.38;;;9.19;100.00
10852;BME280;5479;52.046;6.314;2023-02-20T11:06:17;102092.00;;;9.30;100.00
10852;BME280;5479;52.046;6.314;2023-02-20T11:08:48;102066.88;;;9.43;100.00
10852;BME280;5479;52.046;6.314;2023-02-20T11:11:21;102068.00;;;9.60;100.00
10852;BME280;5479;52.046;6.314;2023-02-20T11:13:50;102095.41;;;9.59;100.00
10852;BME280;5479;52.046;6.314;2023-02-20T11:16:25;102099.03;;;9.55;100.00
10852;BME280;5479;52.046;6.314;2023-02-20T11:19:01;102075.63;;;9.45;100.00
10852;BME280;5479;52.046;6.314;2023-02-20T11:21:37;102090.41;;;9.50;100.00
10852;BME280;5479;52.046;6.314;2023-02-20T11:24:26;102095.59;;;9.53;100.00
10852;BME280;5479;52.046;6.314;2023-02-20T11:26:58;102094.81;;;9.50;100.00
10852;BME280;5479;52.046;6.314;2023-02-20T11:29:33;102096.56;;;9.51;100.00
10852;BME280;5479;52.046;6.314;2023-02-20T11:32:24;102088.09;;;9.41;100.00
10852;BME280;5479;52.046;6.314;2023-02-20T11:35:15;102072.94;;;9.46;100.00
10852;BME280;5479;52.046;6.314;2023-02-20T11:37:50;102063.22;;;9.47;100.00
10852;BME280;5479;52.046;6.314;2023-02-20T11:40:25;102057.16;;;9.43;100.00
10852;BME280;5479;52.046;6.314;2023-02-20T11:42:53;102070.38;;;9.43;100.00
10852;BME280;5479;52.046;6.314;2023-02-20T11:45:23;102071.03;;;9.50;100.00
10852;BME280;5479;52.046;6.314;2023-02-20T11:48:08;102081.97;;;9.39;100.00
10852;BME280;5479;52.046;6.314;2023-02-20T11:50:38;102091.38;;;9.48;100.00
10852;BME280;5479;52.046;6.314;2023-02-20T11:53:17;102099.38;;;9.46;100.00
10852;BME280;5479;52.046;6.314;2023-02-20T11:55:46;102085.28;;;9.46;100.00
10852;BME280;5479;52.046;6.314;2023-02-20T11:58:23;102092.81;;;9.32;100.00
10852;BME280;5479;52.046;6.314;2023-02-20T12:00:53;102090.94;;;9.35;100.00
10852;BME280;5479;52.046;6.314;2023-02-20T12:03:23;102099.22;;;9.25;100.00
10852;BME280;5479;52.046;6.314;2023-02-20T12:05:51;102105.38;;;9.25;100.00
10852;BME280;5479;52.046;6.314;2023-02-20T12:08:52;102096.75;;;9.20;100.00
10852;BME280;5479;52.046;6.314;2023-02-20T12:11:24;102090.53;;;9.21;100.00
10852;BME280;5479;52.046;6.314;2023-02-20T12:13:55;102100.28;;;9.19;100.00
10852;BME280;5479;52.046;6.314;2023-02-20T12:16:49;102097.50;;;9.24;100.00
10852;BME280;5479;52.046;6.314;2023-02-20T12:19:27;102100.59;;;9.10;100.00
10852;BME280;5479;52.046;6.314;2023-02-20T12:22:04;102104.16;;;9.09;100.00
10852;BME280;5479;52.046;6.314;2023-02-20T12:24:56;102092.63;;;9.12;100.00
10852;BME280;5479;52.046;6.314;2023-02-20T12:27:53;102101.25;;;9.17;100.00
10852;BME280;5479;52.046;6.314;2023-02-20T12:30:43;102060.75;;;9.16;100.00
10852;BME280;5479;52.046;6.314;2023-02-20T12:33:30;102073.97;;;9.16;100.00
10852;BME280;5479;52.046;6.314;2023-02-20T12:36:08;102082.78;;;9.15;100.00
10852;BME280;5479;52.046;6.314;2023-02-20T12:38:42;102079.25;;;9.16;100.00
10852;BME280;5479;52.046;6.314;2023-02-20T12:41:30;102074.94;;;9.14;100.00
10852;BME280;5479;52.046;6.314;2023-02-20T12:44:17;102075.38;;;9.26;100.00
10852;BME280;5479;52.046;6.314;2023-02-20T12:46:56;102068.03;;;9.34;100.00
10852;BME280;5479;52.046;6.314;2023-02-20T12:52:53;102035.81;;;9.49;100.00
10852;BME280;5479;52.046;6.314;2023-02-20T12:55:29;102053.72;;;9.41;100.00
10852;BME280;5479;52.046;6.314;2023-02-20T12:58:15;102053.59;;;9.44;100.00
10852;BME280;5479;52.046;6.314;2023-02-20T13:00:52;102062.25;;;9.49;100.00
10852;BME280;5479;52.046;6.314;2023-02-20T13:03:23;102053.59;;;9.44;100.00
10852;BME280;5479;52.046;6.314;2023-02-20T13:05:52;102043.16;;;9.41;100.00
10852;BME280;5479;52.046;6.314;2023-02-20T13:08:24;102046.50;;;9.46;100.00
10852;BME280;5479;52.046;6.314;2023-02-20T13:10:56;102056.38;;;9.41;100.00
10852;BME280;5479;52.046;6.314;2023-02-20T13:13:30;102057.28;;;9.40;100.00
10852;BME280;5479;52.046;6.314;2023-02-20T13:16:08;102062.47;;;9.43;100.00
10852;BME280;5479;52.046;6.314;2023-02-20T13:18:43;102053.59;;;9.44;100.00
10852;BME280;5479;52.046;6.314;2023-02-20T13:21:16;102061.50;;;9.46;100.00
10852;BME280;5479;52.046;6.314;2023-02-20T13:23:45;102051.88;;;9.43;100.00
10852;BME280;5479;52.046;6.314;2023-02-20T13:26:45;102019.72;;;9.55;100.00
10852;BME280;5479;52.046;6.314;2023-02-20T13:29:15;102023.22;;;9.56;100.00
10852;BME280;5479;52.046;6.314;2023-02-20T13:31:47;102016.16;;;9.56;100.00
10852;BME280;5479;52.046;6.314;2023-02-20T13:34:35;102003.53;;;9.64;100.00
10852;BME280;5479;52.046;6.314;2023-02-20T13:37:04;102017.13;;;9.79;100.00
10852;BME280;5479;52.046;6.314;2023-02-20T13:39:38;102015.47;;;9.75;100.00
10852;BME280;5479;52.046;6.314;2023-02-20T13:45:36;102002.84;;;9.83;100.00
10852;BME280;5479;52.046;6.314;2023-02-20T13:48:40;102003.06;;;9.77;100.00
10852;BME280;5479;52.046;6.314;2023-02-20T13:51:27;101986.94;;;9.84;100.00
10852;BME280;5479;52.046;6.314;2023-02-20T13:54:01;101975.94;;;9.95;100.00
10852;BME280;5479;52.046;6.314;2023-02-20T13:56:44;101990.88;;;9.96;100.00
10852;BME280;5479;52.046;6.314;2023-02-20T13:59:13;102001.97;;;9.82;100.00
10852;BME280;5479;52.046;6.314;2023-02-20T14:02:02;101999.81;;;9.68;100.00
10852;BME280;5479;52.046;6.314;2023-02-20T14:04:33;101996.28;;;9.69;100.00
10852;BME280;5479;52.046;6.314;2023-02-20T14:07:01;101991.09;;;9.66;100.00
10852;BME280;5479;52.046;6.314;2023-02-20T14:09:29;101971.09;;;9.59;100.00
10852;BME280;5479;52.046;6.314;2023-02-20T14:12:04;101967.00;;;9.74;100.00